sensor_id;sensor_type;location;lat;lon;timestamp;P1;durP1;ratioP1;P2;durP2;ratioP2
13002;SDS011;66869;57.706;11.922;2023-03-01T00:01:19;1.00;;;0.70;;
13002;SDS011;66869;57.706;11.922;2023-03-01T00:03:45;0.60;;;0.60;;
13002;SDS011;66869;57.706;11.922;2023-03-01T00:06:10;2.25;;;0.70;;
13002;SDS011;66869;57.706;11.922;2023-03-01T00:08:36;0.70;;;0.70;;
13002;SDS011;66869;57.706;11.922;2023-03-01T00:11:06;0.80;;;0.60;;
13002;SDS011;66869;57.706;11.922;2023-03-01T00:13:32;0.75;;;0.60;;
13002;SDS011;66869;57.706;11.922;2023-03-01T00:15:58;0.70;;;0.70;;
13002;SDS011;66869;57.706;11.922;2023-03-01T00:18:23;0.93;;;0.50;;
13002;SDS011;66869;57.706;11.922;2023-03-01T00:20:52;0.90;;;0.77;;
13002;SDS011;66869;57.706;11.922;2023-03-01T00:23:18;1.45;;;0.65;;
13002;SDS011;66869;57.706;11.922;2023-03-01T00:25:43;2.17;;;0.70;;
13002;SDS011;66869;57.706;11.922;2023-03-01T00:28:09;0.68;;;0.68;;
13002;SDS011;66869;57.706;11.922;2023-03-01T00:30:34;0.80;;;0.80;;
13002;SDS011;66869;57.706;11.922;2023-03-01T00:32:59;0.55;;;0.55;;
13002;SDS011;66869;57.706;11.922;2023-03-01T00:35:24;0.90;;;0.70;;
13002;SDS011;66869;57.706;11.922;2023-03-01T00:37:50;0.85;;;0.80;;
13002;SDS011;66869;57.706;11.922;2023-03-01T00:40:26;0.70;;;0.70;;
13002;SDS011;66869;57.706;11.922;2023-03-01T00:42:51;0.70;;;0.50;;
13002;SDS011;66869;57.706;11.922;2023-03-01T00:45:17;1.20;;;0.60;;
13002;SDS011;66869;57.706;11.922;2023-03-01T00:47:42;1.35;;;0.70;;
13002;SDS011;66869;57.706;11.922;2023-03-01T00:50:07;0.70;;;0.70;;
13002;SDS011;66869;57.706;11.922;2023-03-01T00:52:33;1.27;;;0.57;;
13002;SDS011;66869;57.706;11.922;2023-03-01T00:54:58;0.55;;;0.50;;
13002;SDS011;66869;57.706;11.922;2023-03-01T00:57:24;0.63;;;0.63;;
13002;SDS011;66869;57.706;11.922;2023-03-01T00:59:49;1.88;;;0.50;;
13002;SDS011;66869;57.706;11.922;2023-03-01T01:02:14;0.45;;;0.45;;
13002;SDS011;66869;57.706;11.922;2023-03-01T01:04:40;0.77;;;0.60;;
13002;SDS011;66869;57.706;11.922;2023-03-01T01:07:05;1.55;;;0.60;;
13002;SDS011;66869;57.706;11.922;2023-03-01T01:09:30;0.60;;;0.60;;
13002;SDS011;66869;57.706;11.922;2023-03-01T01:11:56;0.70;;;0.70;;
13002;SDS011;66869;57.706;11.922;2023-03-01T01:14:21;0.73;;;0.55;;
13002;SDS011;66869;57.706;11.922;2023-03-01T01:16:46;0.60;;;0.60;;
13002;SDS011;66869;57.706;11.922;2023-03-01T01:19:11;0.73;;;0.45;;
13002;SDS011;66869;57.706;11.922;2023-03-01T01:21:38;0.90;;;0.73;;
13002;SDS011;66869;57.706;11.922;2023-03-01T01:24:04;0.68;;;0.68;;
13002;SDS011;66869;57.706;11.922;2023-03-01T01:26:30;0.90;;;0.65;;
13002;SDS011;66869;57.706;11.922;2023-03-01T01:28:56;0.65;;;0.50;;
13002;SDS011;66869;57.706;11.922;2023-03-01T01:31:22;0.30;;;0.30;;
13002;SDS011;66869;57.706;11.922;2023-03-01T01:33:48;0.55;;;0.50;;
13002;SDS011;66869;57.706;11.922;2023-03-01T01:36:14;0.98;;;0.60;;
13002;SDS011;66869;57.706;11.922;2023-03-01T01:38:39;0.55;;;0.50;;
13002;SDS011;66869;57.706;11.922;2023-03-01T01:41:07;2.20;;;0.50;;
13002;SDS011;66869;57.706;11.922;2023-03-01T01:43:37;1.85;;;0.50;;
13002;SDS011;66869;57.706;11.922;2023-03-01T01:48:59;0.60;;;0.60;;
13002;SDS011;66869;57.706;11.922;2023-03-01T01:51:27;0.75;;;0.60;;
13002;SDS011;66869;57.706;11.922;2023-03-01T01:53:55;0.63;;;0.63;;
13002;SDS011;66869;57.706;11.922;2023-03-01T01:56:23;0.50;;;0.50;;
13002;SDS011;66869;57.706;11.922;2023-03-01T01:58:49;0.50;;;0.50;;
13002;SDS011;66869;57.706;11.922;2023-03-01T02:01:15;1.42;;;0.60;;
13002;SDS011;66869;57.706;11.922;2023-03-01T02:03:41;1.67;;;0.60;;
13002;SDS011;66869;57.706;11.922;2023-03-01T02:06:12;0.50;;;0.50;;
13002;SDS011;66869;57.706;11.922;2023-03-01T02:08:38;0.50;;;0.50;;
13002;SDS011;66869;57.706;11.922;2023-03-01T02:11:06;0.50;;;0.50;;
13002;SDS011;66869;57.706;11.922;2023-03-01T02:13:32;0.82;;;0.57;;
13002;SDS011;66869;57.706;11.922;2023-03-01T02:15:57;0.55;;;0.55;;
13002;SDS011;66869;57.706;11.922;2023-03-01T02:18:23;1.90;;;0.80;;
13002;SDS011;66869;57.706;11.922;2023-03-01T02:20:52;2.13;;;0.63;;
13002;SDS011;66869;57.706;11.922;2023-03-01T02:23:21;0.50;;;0.43;;
13002;SDS011;66869;57.706;11.922;2023-03-01T02:28:31;1.05;;;0.60;;
13002;SDS011;66869;57.706;11.922;2023-03-01T02:30:56;0.65;;;0.50;;
13002;SDS011;66869;57.706;11.922;2023-03-01T02:33:40;0.60;;;0.60;;
13002;SDS011;66869;57.706;11.922;2023-03-01T02:36:12;0.98;;;0.80;;
13002;SDS011;66869;57.706;11.922;2023-03-01T02:38:39;0.40;;;0.40;;
13002;SDS011;66869;57.706;11.922;2023-03-01T02:41:05;1.17;;;0.63;;
13002;SDS011;66869;57.706;11.922;2023-03-01T02:43:32;0.65;;;0.60;;
13002;SDS011;66869;57.706;11.922;2023-03-01T02:45:58;0.90;;;0.50;;
13002;SDS011;66869;57.706;11.922;2023-03-01T02:48:24;0.82;;;0.60;;
13002;SDS011;66869;57.706;11.922;2023-03-01T02:55:43;1.07;;;0.60;;
13002;SDS011;66869;57.706;11.922;2023-03-01T02:58:08;0.60;;;0.60;;
13002;SDS011;66869;57.706;11.922;2023-03-01T03:00:37;0.95;;;0.70;;
13002;SDS011;66869;57.706;11.922;2023-03-01T03:03:10;0.82;;;0.75;;
13002;SDS011;66869;57.706;11.922;2023-03-01T03:05:38;1.02;;;0.65;;
13002;SDS011;66869;57.706;11.922;2023-03-01T03:08:03;0.60;;;0.60;;
13002;SDS011;66869;57.706;11.922;2023-03-01T03:10:30;0.50;;;0.50;;
13002;SDS011;66869;57.706;11.922;2023-03-01T03:13:14;0.40;;;0.40;;
13002;SDS011;66869;57.706;11.922;2023-03-01T03:15:39;0.70;;;0.40;;
13002;SDS011;66869;57.706;11.922;2023-03-01T03:18:06;0.50;;;0.50;;
13002;SDS011;66869;57.706;11.922;2023-03-01T03:20:32;1.00;;;0.60;;
13002;SDS011;66869;57.706;11.922;2023-03-01T03:22:57;2.25;;;0.70;;
13002;SDS011;66869;57.706;11.922;2023-03-01T03:25:23;0.52;;;0.50;;
13002;SDS011;66869;57.706;11.922;2023-03-01T03:27:49;0.50;;;0.50;;
13002;SDS011;66869;57.706;11.922;2023-03-01T03:30:21;0.60;;;0.57;;
13002;SDS011;66869;57.706;11.922;2023-03-01T03:32:47;1.20;;;0.73;;
13002;SDS011;66869;57.706;11.922;2023-03-01T03:35:19;0.70;;;0.60;;
13002;SDS011;66869;57.706;11.922;2023-03-01T03:37:44;1.73;;;0.60;;
13002;SDS011;66869;57.706;11.922;2023-03-01T03:40:38;2.30;;;0.50;;
13002;SDS011;66869;57.706;11.922;2023-03-01T03:43:05;0.50;;;0.50;;
13002;SDS011;66869;57.706;11.922;2023-03-01T03:45:30;1.15;;;0.50;;
13002;SDS011;66869;57.706;11.922;2023-03-01T03:47:58;0.40;;;0.30;;
13002;SDS011;66869;57.706;11.922;2023-03-01T03:50:23;0.55;;;0.55;;
13002;SDS011;66869;57.706;11.922;2023-03-01T03:52:48;0.73;;;0.40;;
13002;SDS011;66869;57.706;11.922;2023-03-01T03:55:14;3.72;;;0.50;;
13002;SDS011;66869;57.706;11.922;2023-03-01T03:57:44;0.75;;;0.43;;
13002;SDS011;66869;57.706;11.922;2023-03-01T04:00:10;0.60;;;0.60;;
13002;SDS011;66869;57.706;11.922;2023-03-01T04:02:40;0.40;;;0.40;;
13002;SDS011;66869;57.706;11.922;2023-03-01T04:05:07;1.65;;;0.50;;
13002;SDS011;66869;57.706;11.922;2023-03-01T04:07:33;0.50;;;0.47;;
13002;SDS011;66869;57.706;11.922;2023-03-01T04:09:58;0.50;;;0.50;;
13002;SDS011;66869;57.706;11.922;2023-03-01T04:12:23;0.90;;;0.52;;
13002;SDS011;66869;57.706;11.922;2023-03-01T04:14:49;0.68;;;0.40;;
13002;SDS011;66869;57.706;11.922;2023-03-01T04:17:14;1.38;;;0.40;;
13002;SDS011;66869;57.706;11.922;2023-03-01T04:19:39;0.60;;;0.60;;
13002;SDS011;66869;57.706;11.922;2023-03-01T04:22:04;1.00;;;0.40;;
13002;SDS011;66869;57.706;11.922;2023-03-01T04:24:37;0.40;;;0.40;;
13002;SDS011;66869;57.706;11.922;2023-03-01T04:27:03;0.60;;;0.60;;
13002;SDS011;66869;57.706;11.922;2023-03-01T04:29:28;0.52;;;0.45;;
13002;SDS011;66869;57.706;11.922;2023-03-01T04:31:53;0.43;;;0.43;;
13002;SDS011;66869;57.706;11.922;2023-03-01T04:34:18;0.52;;;0.52;;
13002;SDS011;66869;57.706;11.922;2023-03-01T04:36:44;3.90;;;0.95;;
13002;SDS011;66869;57.706;11.922;2023-03-01T04:39:09;23.80;;;6.13;;
13002;SDS011;66869;57.706;11.922;2023-03-01T04:41:38;34.83;;;8.93;;
13002;SDS011;66869;57.706;11.922;2023-03-01T04:44:07;46.58;;;11.23;;
13002;SDS011;66869;57.706;11.922;2023-03-01T04:46:34;54.60;;;13.60;;
13002;SDS011;66869;57.706;11.922;2023-03-01T04:48:59;61.33;;;12.25;;
13002;SDS011;66869;57.706;11.922;2023-03-01T04:51:24;50.58;;;13.98;;
13002;SDS011;66869;57.706;11.922;2023-03-01T04:53:50;58.55;;;12.73;;
13002;SDS011;66869;57.706;11.922;2023-03-01T04:56:15;41.25;;;9.63;;
13002;SDS011;66869;57.706;11.922;2023-03-01T04:58:41;30.05;;;7.20;;
13002;SDS011;66869;57.706;11.922;2023-03-01T05:01:11;27.23;;;7.15;;
13002;SDS011;66869;57.706;11.922;2023-03-01T05:03:40;26.33;;;6.15;;
13002;SDS011;66869;57.706;11.922;2023-03-01T05:06:05;20.02;;;5.97;;
13002;SDS011;66869;57.706;11.922;2023-03-01T05:08:31;20.60;;;5.03;;
13002;SDS011;66869;57.706;11.922;2023-03-01T05:10:59;22.27;;;5.53;;
13002;SDS011;66869;57.706;11.922;2023-03-01T05:13:24;17.83;;;4.55;;
13002;SDS011;66869;57.706;11.922;2023-03-01T05:15:57;17.55;;;3.78;;
13002;SDS011;66869;57.706;11.922;2023-03-01T05:18:23;15.48;;;4.40;;
13002;SDS011;66869;57.706;11.922;2023-03-01T05:20:51;12.25;;;3.67;;
13002;SDS011;66869;57.706;11.922;2023-03-01T05:23:17;14.65;;;3.88;;
13002;SDS011;66869;57.706;11.922;2023-03-01T05:25:43;17.17;;;3.60;;
13002;SDS011;66869;57.706;11.922;2023-03-01T05:28:10;14.02;;;4.10;;
13002;SDS011;66869;57.706;11.922;2023-03-01T05:30:36;11.68;;;3.58;;
13002;SDS011;66869;57.706;11.922;2023-03-01T05:33:04;12.73;;;3.60;;
13002;SDS011;66869;57.706;11.922;2023-03-01T05:35:29;8.25;;;2.60;;
13002;SDS011;66869;57.706;11.922;2023-03-01T05:37:57;10.38;;;3.20;;
13002;SDS011;66869;57.706;11.922;2023-03-01T05:40:23;11.50;;;2.80;;
13002;SDS011;66869;57.706;11.922;2023-03-01T05:45:14;8.00;;;2.28;;
13002;SDS011;66869;57.706;11.922;2023-03-01T05:47:41;5.55;;;2.17;;
13002;SDS011;66869;57.706;11.922;2023-03-01T05:50:18;7.82;;;2.20;;
13002;SDS011;66869;57.706;11.922;2023-03-01T05:52:48;7.68;;;2.40;;
13002;SDS011;66869;57.706;11.922;2023-03-01T05:55:15;8.70;;;1.70;;
13002;SDS011;66869;57.706;11.922;2023-03-01T05:57:40;5.25;;;1.92;;
13002;SDS011;66869;57.706;11.922;2023-03-01T06:00:06;6.10;;;1.70;;
13002;SDS011;66869;57.706;11.922;2023-03-01T06:02:31;6.25;;;1.65;;
13002;SDS011;66869;57.706;11.922;2023-03-01T06:04:56;7.28;;;1.73;;
13002;SDS011;66869;57.706;11.922;2023-03-01T06:07:22;5.68;;;1.70;;
13002;SDS011;66869;57.706;11.922;2023-03-01T06:09:47;5.13;;;1.27;;
13002;SDS011;66869;57.706;11.922;2023-03-01T06:12:12;4.40;;;1.40;;
13002;SDS011;66869;57.706;11.922;2023-03-01T06:14:37;4.85;;;1.35;;
13002;SDS011;66869;57.706;11.922;2023-03-01T06:17:03;2.78;;;1.30;;
13002;SDS011;66869;57.706;11.922;2023-03-01T06:19:28;3.85;;;1.35;;
13002;SDS011;66869;57.706;11.922;2023-03-01T06:21:53;2.80;;;1.30;;
13002;SDS011;66869;57.706;11.922;2023-03-01T06:24:18;3.00;;;0.90;;
13002;SDS011;66869;57.706;11.922;2023-03-01T06:26:44;2.85;;;1.08;;
13002;SDS011;66869;57.706;11.922;2023-03-01T06:29:09;2.15;;;1.02;;
13002;SDS011;66869;57.706;11.922;2023-03-01T06:31:34;2.83;;;1.20;;
13002;SDS011;66869;57.706;11.922;2023-03-01T06:34:00;4.60;;;1.30;;
13002;SDS011;66869;57.706;11.922;2023-03-01T06:36:25;2.13;;;1.10;;
13002;SDS011;66869;57.706;11.922;2023-03-01T06:38:50;2.22;;;0.95;;
13002;SDS011;66869;57.706;11.922;2023-03-01T06:41:15;2.33;;;0.90;;
13002;SDS011;66869;57.706;11.922;2023-03-01T06:43:41;2.25;;;0.95;;
13002;SDS011;66869;57.706;11.922;2023-03-01T06:46:06;3.00;;;0.95;;
13002;SDS011;66869;57.706;11.922;2023-03-01T06:48:32;1.75;;;0.80;;
13002;SDS011;66869;57.706;11.922;2023-03-01T06:50:58;1.02;;;0.93;;
13002;SDS011;66869;57.706;11.922;2023-03-01T06:53:24;1.90;;;0.93;;
13002;SDS011;66869;57.706;11.922;2023-03-01T06:55:53;2.05;;;0.88;;
13002;SDS011;66869;57.706;11.922;2023-03-01T06:58:19;1.90;;;0.85;;
13002;SDS011;66869;57.706;11.922;2023-03-01T07:00:44;2.20;;;0.80;;
13002;SDS011;66869;57.706;11.922;2023-03-01T07:03:09;1.10;;;0.75;;
13002;SDS011;66869;57.706;11.922;2023-03-01T07:05:35;1.77;;;0.80;;
13002;SDS011;66869;57.706;11.922;2023-03-01T07:08:00;2.08;;;0.75;;
13002;SDS011;66869;57.706;11.922;2023-03-01T07:10:25;1.23;;;0.60;;
13002;SDS011;66869;57.706;11.922;2023-03-01T07:12:53;2.25;;;0.73;;
13002;SDS011;66869;57.706;11.922;2023-03-01T07:15:19;1.42;;;0.60;;
13002;SDS011;66869;57.706;11.922;2023-03-01T07:17:44;0.95;;;0.90;;
13002;SDS011;66869;57.706;11.922;2023-03-01T07:20:12;1.23;;;0.65;;
13002;SDS011;66869;57.706;11.922;2023-03-01T07:22:39;1.80;;;0.90;;
13002;SDS011;66869;57.706;11.922;2023-03-01T07:25:04;1.75;;;0.75;;
13002;SDS011;66869;57.706;11.922;2023-03-01T07:27:30;1.02;;;0.65;;
13002;SDS011;66869;57.706;11.922;2023-03-01T07:29:55;1.00;;;0.60;;
13002;SDS011;66869;57.706;11.922;2023-03-01T07:32:20;0.98;;;0.73;;
13002;SDS011;66869;57.706;11.922;2023-03-01T07:34:45;0.75;;;0.57;;
13002;SDS011;66869;57.706;11.922;2023-03-01T07:37:11;0.95;;;0.55;;
13002;SDS011;66869;57.706;11.922;2023-03-01T07:39:36;0.80;;;0.50;;
13002;SDS011;66869;57.706;11.922;2023-03-01T07:42:02;1.20;;;0.70;;
13002;SDS011;66869;57.706;11.922;2023-03-01T07:44:27;1.27;;;0.60;;
13002;SDS011;66869;57.706;11.922;2023-03-01T07:46:53;0.40;;;0.40;;
13002;SDS011;66869;57.706;11.922;2023-03-01T07:49:21;0.40;;;0.40;;
13002;SDS011;66869;57.706;11.922;2023-03-01T07:51:46;0.77;;;0.50;;
13002;SDS011;66869;57.706;11.922;2023-03-01T07:54:11;0.50;;;0.50;;
13002;SDS011;66869;57.706;11.922;2023-03-01T07:56:37;0.68;;;0.40;;
13002;SDS011;66869;57.706;11.922;2023-03-01T07:59:02;0.50;;;0.50;;
13002;SDS011;66869;57.706;11.922;2023-03-01T08:01:27;0.43;;;0.43;;
13002;SDS011;66869;57.706;11.922;2023-03-01T08:03:52;1.00;;;0.50;;
13002;SDS011;66869;57.706;11.922;2023-03-01T08:06:18;0.47;;;0.30;;
13002;SDS011;66869;57.706;11.922;2023-03-01T08:08:43;1.00;;;0.40;;
13002;SDS011;66869;57.706;11.922;2023-03-01T08:11:10;0.57;;;0.40;;
13002;SDS011;66869;57.706;11.922;2023-03-01T08:13:36;0.63;;;0.50;;
13002;SDS011;66869;57.706;11.922;2023-03-01T08:16:02;0.40;;;0.40;;
13002;SDS011;66869;57.706;11.922;2023-03-01T08:18:27;0.80;;;0.60;;
13002;SDS011;66869;57.706;11.922;2023-03-01T08:20:52;0.50;;;0.40;;
13002;SDS011;66869;57.706;11.922;2023-03-01T08:23:18;0.75;;;0.50;;
13002;SDS011;66869;57.706;11.922;2023-03-01T08:25:43;0.88;;;0.50;;
13002;SDS011;66869;57.706;11.922;2023-03-01T08:28:08;0.82;;;0.40;;
13002;SDS011;66869;57.706;11.922;2023-03-01T08:30:33;0.30;;;0.30;;
13002;SDS011;66869;57.706;11.922;2023-03-01T08:32:59;0.38;;;0.38;;
13002;SDS011;66869;57.706;11.922;2023-03-01T08:35:24;0.38;;;0.38;;
13002;SDS011;66869;57.706;11.922;2023-03-01T08:37:49;1.13;;;0.32;;
13002;SDS011;66869;57.706;11.922;2023-03-01T08:40:15;1.70;;;0.30;;
13002;SDS011;66869;57.706;11.922;2023-03-01T08:42:40;0.55;;;0.30;;
13002;SDS011;66869;57.706;11.922;2023-03-01T08:45:07;0.30;;;0.30;;
13002;SDS011;66869;57.706;11.922;2023-03-01T08:47:33;0.43;;;0.30;;
13002;SDS011;66869;57.706;11.922;2023-03-01T08:49:58;0.75;;;0.40;;
13002;SDS011;66869;57.706;11.922;2023-03-01T08:52:24;0.30;;;0.30;;
13002;SDS011;66869;57.706;11.922;2023-03-01T08:54:49;0.50;;;0.30;;
13002;SDS011;66869;57.706;11.922;2023-03-01T08:57:15;0.40;;;0.40;;
13002;SDS011;66869;57.706;11.922;2023-03-01T08:59:40;0.30;;;0.30;;
13002;SDS011;66869;57.706;11.922;2023-03-01T09:02:06;0.38;;;0.30;;
13002;SDS011;66869;57.706;11.922;2023-03-01T09:04:35;0.30;;;0.30;;
13002;SDS011;66869;57.706;11.922;2023-03-01T09:07:00;0.80;;;0.25;;
13002;SDS011;66869;57.706;11.922;2023-03-01T09:09:26;0.50;;;0.30;;
13002;SDS011;66869;57.706;11.922;2023-03-01T09:11:51;0.40;;;0.40;;
13002;SDS011;66869;57.706;11.922;2023-03-01T09:14:16;0.28;;;0.28;;
13002;SDS011;66869;57.706;11.922;2023-03-01T09:16:42;0.65;;;0.25;;
13002;SDS011;66869;57.706;11.922;2023-03-01T09:19:07;0.40;;;0.30;;
13002;SDS011;66869;57.706;11.922;2023-03-01T09:21:33;0.40;;;0.38;;
13002;SDS011;66869;57.706;11.922;2023-03-01T09:23:58;0.30;;;0.30;;
13002;SDS011;66869;57.706;11.922;2023-03-01T09:26:24;0.30;;;0.30;;
13002;SDS011;66869;57.706;11.922;2023-03-01T09:28:50;0.52;;;0.32;;
13002;SDS011;66869;57.706;11.922;2023-03-01T09:31:17;0.55;;;0.30;;
13002;SDS011;66869;57.706;11.922;2023-03-01T09:33:45;0.10;;;0.10;;
13002;SDS011;66869;57.706;11.922;2023-03-01T09:36:11;0.20;;;0.20;;
13002;SDS011;66869;57.706;11.922;2023-03-01T09:38:37;0.22;;;0.22;;
13002;SDS011;66869;57.706;11.922;2023-03-01T09:41:02;0.30;;;0.30;;
13002;SDS011;66869;57.706;11.922;2023-03-01T09:45:54;0.22;;;0.17;;
13002;SDS011;66869;57.706;11.922;2023-03-01T09:48:21;0.22;;;0.22;;
13002;SDS011;66869;57.706;11.922;2023-03-01T09:50:48;0.30;;;0.30;;
13002;SDS011;66869;57.706;11.922;2023-03-01T09:53:25;0.43;;;0.20;;
13002;SDS011;66869;57.706;11.922;2023-03-01T09:56:11;0.30;;;0.30;;
13002;SDS011;66869;57.706;11.922;2023-03-01T09:58:41;0.30;;;0.20;;
13002;SDS011;66869;57.706;11.922;2023-03-01T10:01:15;0.40;;;0.40;;
13002;SDS011;66869;57.706;11.922;2023-03-01T10:03:58;1.60;;;0.30;;
13002;SDS011;66869;57.706;11.922;2023-03-01T10:06:25;0.17;;;0.17;;
13002;SDS011;66869;57.706;11.922;2023-03-01T10:08:54;0.32;;;0.30;;
13002;SDS011;66869;57.706;11.922;2023-03-01T10:11:25;0.30;;;0.20;;
13002;SDS011;66869;57.706;11.922;2023-03-01T10:13:54;0.30;;;0.30;;
13002;SDS011;66869;57.706;11.922;2023-03-01T10:16:22;0.20;;;0.20;;
13002;SDS011;66869;57.706;11.922;2023-03-01T10:18:52;1.35;;;0.40;;
13002;SDS011;66869;57.706;11.922;2023-03-01T10:21:19;0.30;;;0.20;;
13002;SDS011;66869;57.706;11.922;2023-03-01T10:23:45;0.55;;;0.30;;
13002;SDS011;66869;57.706;11.922;2023-03-01T10:26:23;0.20;;;0.20;;
13002;SDS011;66869;57.706;11.922;2023-03-01T10:29:08;0.45;;;0.38;;
13002;SDS011;66869;57.706;11.922;2023-03-01T10:34:07;0.30;;;0.20;;
13002;SDS011;66869;57.706;11.922;2023-03-01T10:36:33;0.20;;;0.20;;
13002;SDS011;66869;57.706;11.922;2023-03-01T10:38:58;0.20;;;0.20;;
13002;SDS011;66869;57.706;11.922;2023-03-01T10:41:24;0.28;;;0.20;;
13002;SDS011;66869;57.706;11.922;2023-03-01T10:43:54;0.10;;;0.10;;
13002;SDS011;66869;57.706;11.922;2023-03-01T10:46:24;0.52;;;0.20;;
13002;SDS011;66869;57.706;11.922;2023-03-01T10:49:06;0.20;;;0.20;;
13002;SDS011;66869;57.706;11.922;2023-03-01T10:51:32;0.10;;;0.10;;
13002;SDS011;66869;57.706;11.922;2023-03-01T10:53:57;1.25;;;0.20;;
13002;SDS011;66869;57.706;11.922;2023-03-01T10:56:23;0.20;;;0.20;;
13002;SDS011;66869;57.706;11.922;2023-03-01T10:58:57;0.20;;;0.20;;
13002;SDS011;66869;57.706;11.922;2023-03-01T11:04:03;0.73;;;0.30;;
13002;SDS011;66869;57.706;11.922;2023-03-01T11:06:28;0.15;;;0.15;;
13002;SDS011;66869;57.706;11.922;2023-03-01T11:08:54;0.20;;;0.17;;
13002;SDS011;66869;57.706;11.922;2023-03-01T11:11:23;0.65;;;0.22;;
13002;SDS011;66869;57.706;11.922;2023-03-01T11:16:14;0.10;;;0.10;;
13002;SDS011;66869;57.706;11.922;2023-03-01T11:18:55;0.20;;;0.20;;
13002;SDS011;66869;57.706;11.922;2023-03-01T11:21:20;0.15;;;0.15;;
13002;SDS011;66869;57.706;11.922;2023-03-01T11:23:46;0.22;;;0.20;;
13002;SDS011;66869;57.706;11.922;2023-03-01T11:26:12;0.10;;;0.10;;
13002;SDS011;66869;57.706;11.922;2023-03-01T11:28:38;0.13;;;0.13;;
13002;SDS011;66869;57.706;11.922;2023-03-01T11:31:08;0.03;;;0.03;;
13002;SDS011;66869;57.706;11.922;2023-03-01T11:36:06;0.03;;;0.03;;
13002;SDS011;66869;57.706;11.922;2023-03-01T11:38:34;0.30;;;0.30;;
13002;SDS011;66869;57.706;11.922;2023-03-01T11:41:00;0.10;;;0.10;;
13002;SDS011;66869;57.706;11.922;2023-03-01T11:51:05;0.20;;;0.13;;
13002;SDS011;66869;57.706;11.922;2023-03-01T11:53:39;0.40;;;0.20;;
13002;SDS011;66869;57.706;11.922;2023-03-01T11:56:15;0.30;;;0.20;;
13002;SDS011;66869;57.706;11.922;2023-03-01T12:33:13;2.17;;;0.10;;
13002;SDS011;66869;57.706;11.922;2023-03-01T12:48:35;0.15;;;0.10;;
13002;SDS011;66869;57.706;11.922;2023-03-01T12:51:06;0.10;;;0.10;;
13002;SDS011;66869;57.706;11.922;2023-03-01T12:53:35;0.10;;;0.10;;
13002;SDS011;66869;57.706;11.922;2023-03-01T12:56:03;0.00;;;0.00;;
13002;SDS011;66869;57.706;11.922;2023-03-01T12:58:42;0.05;;;0.05;;
13002;SDS011;66869;57.706;11.922;2023-03-01T13:03:58;0.10;;;0.10;;
13002;SDS011;66869;57.706;11.922;2023-03-01T13:06:37;0.10;;;0.10;;
13002;SDS011;66869;57.706;11.922;2023-03-01T13:11:49;0.20;;;0.20;;
13002;SDS011;66869;57.706;11.922;2023-03-01T13:16:46;1.35;;;0.25;;
13002;SDS011;66869;57.706;11.922;2023-03-01T13:19:17;0.20;;;0.20;;
13002;SDS011;66869;57.706;11.922;2023-03-01T13:21:44;0.50;;;0.20;;
13002;SDS011;66869;57.706;11.922;2023-03-01T13:29:43;0.10;;;0.10;;
13002;SDS011;66869;57.706;11.922;2023-03-01T13:32:22;0.17;;;0.17;;
13002;SDS011;66869;57.706;11.922;2023-03-01T13:34:48;0.57;;;0.10;;
13002;SDS011;66869;57.706;11.922;2023-03-01T13:37:22;0.10;;;0.10;;
13002;SDS011;66869;57.706;11.922;2023-03-01T13:39:47;0.10;;;0.10;;
13002;SDS011;66869;57.706;11.922;2023-03-01T13:44:57;0.10;;;0.10;;
13002;SDS011;66869;57.706;11.922;2023-03-01T13:47:22;0.45;;;0.17;;
13002;SDS011;66869;57.706;11.922;2023-03-01T13:55:03;0.20;;;0.10;;
13002;SDS011;66869;57.706;11.922;2023-03-01T13:57:36;0.10;;;0.10;;
13002;SDS011;66869;57.706;11.922;2023-03-01T14:00:04;0.28;;;0.10;;
13002;SDS011;66869;57.706;11.922;2023-03-01T14:02:29;0.15;;;0.15;;
13002;SDS011;66869;57.706;11.922;2023-03-01T14:04:58;0.20;;;0.20;;
13002;SDS011;66869;57.706;11.922;2023-03-01T14:07:24;0.30;;;0.10;;
13002;SDS011;66869;57.706;11.922;2023-03-01T14:09:54;0.10;;;0.10;;
13002;SDS011;66869;57.706;11.922;2023-03-01T14:20:09;0.28;;;0.20;;
13002;SDS011;66869;57.706;11.922;2023-03-01T14:22:35;0.10;;;0.10;;
13002;SDS011;66869;57.706;11.922;2023-03-01T14:27:42;0.10;;;0.10;;
13002;SDS011;66869;57.706;11.922;2023-03-01T14:30:19;0.05;;;0.05;;
13002;SDS011;66869;57.706;11.922;2023-03-01T14:32:51;0.10;;;0.10;;
13002;SDS011;66869;57.706;11.922;2023-03-01T14:35:24;0.10;;;0.10;;
13002;SDS011;66869;57.706;11.922;2023-03-01T14:37:49;0.17;;;0.17;;
13002;SDS011;66869;57.706;11.922;2023-03-01T14:40:28;0.22;;;0.10;;
13002;SDS011;66869;57.706;11.922;2023-03-01T14:42:55;0.20;;;0.10;;
13002;SDS011;66869;57.706;11.922;2023-03-01T14:45:21;0.10;;;0.10;;
13002;SDS011;66869;57.706;11.922;2023-03-01T14:47:47;0.13;;;0.13;;
13002;SDS011;66869;57.706;11.922;2023-03-01T14:52:42;1.97;;;0.10;;
13002;SDS011;66869;57.706;11.922;2023-03-01T14:55:15;0.10;;;0.10;;
13002;SDS011;66869;57.706;11.922;2023-03-01T14:57:46;0.10;;;0.10;;
13002;SDS011;66869;57.706;11.922;2023-03-01T15:00:16;0.20;;;0.20;;
13002;SDS011;66869;57.706;11.922;2023-03-01T15:02:42;0.10;;;0.10;;
13002;SDS011;66869;57.706;11.922;2023-03-01T15:05:08;0.40;;;0.10;;
13002;SDS011;66869;57.706;11.922;2023-03-01T15:07:36;0.32;;;0.10;;
13002;SDS011;66869;57.706;11.922;2023-03-01T15:10:03;0.10;;;0.10;;
13002;SDS011;66869;57.706;11.922;2023-03-01T15:12:36;0.63;;;0.10;;
13002;SDS011;66869;57.706;11.922;2023-03-01T15:15:18;0.10;;;0.10;;
13002;SDS011;66869;57.706;11.922;2023-03-01T15:17:44;0.10;;;0.10;;
13002;SDS011;66869;57.706;11.922;2023-03-01T15:20:16;0.13;;;0.13;;
13002;SDS011;66869;57.706;11.922;2023-03-01T15:22:44;0.10;;;0.10;;
13002;SDS011;66869;57.706;11.922;2023-03-01T15:25:19;0.10;;;0.10;;
13002;SDS011;66869;57.706;11.922;2023-03-01T15:27:46;0.10;;;0.10;;
13002;SDS011;66869;57.706;11.922;2023-03-01T15:30:18;0.10;;;0.10;;
13002;SDS011;66869;57.706;11.922;2023-03-01T15:32:45;0.10;;;0.10;;
13002;SDS011;66869;57.706;11.922;2023-03-01T15:37:54;0.22;;;0.10;;
13002;SDS011;66869;57.706;11.922;2023-03-01T15:42:45;0.10;;;0.10;;
13002;SDS011;66869;57.706;11.922;2023-03-01T15:47:38;0.20;;;0.20;;
13002;SDS011;66869;57.706;11.922;2023-03-01T15:50:04;0.10;;;0.10;;
13002;SDS011;66869;57.706;11.922;2023-03-01T15:52:34;0.93;;;0.20;;
13002;SDS011;66869;57.706;11.922;2023-03-01T15:55:02;0.40;;;0.13;;
13002;SDS011;66869;57.706;11.922;2023-03-01T15:57:28;1.65;;;0.20;;
13002;SDS011;66869;57.706;11.922;2023-03-01T15:59:54;1.08;;;0.20;;
13002;SDS011;66869;57.706;11.922;2023-03-01T16:02:21;0.03;;;0.03;;
13002;SDS011;66869;57.706;11.922;2023-03-01T16:04:47;1.70;;;0.30;;
13002;SDS011;66869;57.706;11.922;2023-03-01T16:07:13;0.10;;;0.10;;
13002;SDS011;66869;57.706;11.922;2023-03-01T16:09:39;0.60;;;0.10;;
13002;SDS011;66869;57.706;11.922;2023-03-01T16:12:05;0.28;;;0.10;;
13002;SDS011;66869;57.706;11.922;2023-03-01T16:14:30;1.17;;;0.20;;
13002;SDS011;66869;57.706;11.922;2023-03-01T16:16:56;0.75;;;0.20;;
13002;SDS011;66869;57.706;11.922;2023-03-01T16:19:21;1.15;;;0.20;;
13002;SDS011;66869;57.706;11.922;2023-03-01T16:21:46;0.15;;;0.15;;
13002;SDS011;66869;57.706;11.922;2023-03-01T16:24:13;0.10;;;0.10;;
13002;SDS011;66869;57.706;11.922;2023-03-01T16:26:39;0.13;;;0.13;;
13002;SDS011;66869;57.706;11.922;2023-03-01T16:29:04;2.83;;;0.20;;
13002;SDS011;66869;57.706;11.922;2023-03-01T16:31:29;0.15;;;0.15;;
13002;SDS011;66869;57.706;11.922;2023-03-01T16:33:56;0.35;;;0.10;;
13002;SDS011;66869;57.706;11.922;2023-03-01T16:36:22;1.17;;;0.20;;